createdAt,value
2022-08-08T00:00:52.539Z,18.06
2022-08-08T00:03:32.546Z,18.00
2022-08-08T00:06:28.451Z,17.96
2022-08-08T00:09:22.289Z,17.92
2022-08-08T00:12:29.604Z,17.87
2022-08-08T00:15:55.736Z,17.77
2022-08-08T00:18:33.676Z,17.73
2022-08-08T00:21:23.212Z,17.59
2022-08-08T00:24:07.583Z,17.54
2022-08-08T00:26:58.772Z,17.49
2022-08-08T00:29:55.796Z,17.43
2022-08-08T00:32:53.108Z,17.46
2022-08-08T00:36:08.426Z,17.44
2022-08-08T00:41:06.795Z,17.43
2022-08-08T00:42:42.538Z,17.40
2022-08-08T00:46:01.412Z,17.38
2022-08-08T00:49:02.072Z,17.42
2022-08-08T00:52:20.101Z,17.40
2022-08-08T00:55:22.098Z,17.41
2022-08-08T00:58:36.700Z,17.50
2022-08-08T01:01:44.014Z,17.54
2022-08-08T01:04:36.844Z,17.48
2022-08-08T01:07:55.310Z,17.44
2022-08-08T01:10:57.991Z,17.46
2022-08-08T01:14:16.188Z,17.47
2022-08-08T01:17:35.036Z,17.49
2022-08-08T01:21:07.878Z,17.67
2022-08-08T01:24:43.601Z,17.66
2022-08-08T01:28:00.266Z,17.72
2022-08-08T01:32:15.258Z,17.80
2022-08-08T01:34:36.465Z,17.88
2022-08-08T01:37:59.234Z,17.86
2022-08-08T01:41:17.032Z,17.81
2022-08-08T01:44:26.674Z,17.63
2022-08-08T01:48:14.090Z,17.78
2022-08-08T01:50:38.379Z,17.82
2022-08-08T01:55:15.593Z,17.86
2022-08-08T01:56:59.809Z,17.93
2022-08-08T02:00:27.873Z,17.90
2022-08-08T02:03:55.985Z,17.92
2022-08-08T02:06:59.719Z,18.00
2022-08-08T02:10:04.205Z,18.09
2022-08-08T02:13:54.141Z,18.26
2022-08-08T02:16:44.949Z,18.33
2022-08-08T02:20:07.685Z,18.31
2022-08-08T02:22:55.359Z,18.12
2022-08-08T02:25:53.774Z,18.10
2022-08-08T02:29:14.950Z,18.10
2022-08-08T02:32:07.211Z,17.95
2022-08-08T02:35:07.833Z,17.94
2022-08-08T02:38:25.068Z,17.90
2022-08-08T02:41:59.657Z,17.82
2022-08-08T02:44:56.918Z,17.83
2022-08-08T02:47:55.000Z,17.83
2022-08-08T02:50:55.791Z,17.93
2022-08-08T02:54:30.317Z,17.91
2022-08-08T02:57:40.509Z,17.71
2022-08-08T03:01:14.872Z,17.65
2022-08-08T03:05:03.999Z,17.64
2022-08-08T03:07:58.598Z,17.61
2022-08-08T03:11:07.488Z,17.60
2022-08-08T03:16:03.867Z,17.44
2022-08-08T03:17:39.208Z,17.42
2022-08-08T03:20:18.403Z,17.41
2022-08-08T03:23:04.673Z,17.46
2022-08-08T03:25:51.042Z,17.38
2022-08-08T03:28:51.307Z,17.21
2022-08-08T03:32:05.293Z,17.27
2022-08-08T03:34:44.824Z,17.25
2022-08-08T03:38:54.565Z,17.27
2022-08-08T03:40:51.738Z,17.28
2022-08-08T03:43:38.417Z,17.25
2022-08-08T03:46:20.754Z,17.22
2022-08-08T03:52:44.581Z,17.36
2022-08-08T03:55:57.221Z,17.37
2022-08-08T03:58:47.764Z,17.40
2022-08-08T04:01:27.732Z,17.44
2022-08-08T04:04:31.403Z,17.51
2022-08-08T04:07:11.708Z,17.50
2022-08-08T04:10:02.892Z,17.52
2022-08-08T04:12:46.332Z,17.52
2022-08-08T04:15:30.452Z,17.65
2022-08-08T04:18:18.473Z,17.65
2022-08-08T04:21:06.350Z,17.72
2022-08-08T04:24:05.877Z,17.83
2022-08-08T04:26:57.095Z,17.80
2022-08-08T04:29:38.920Z,17.79
2022-08-08T04:32:35.680Z,17.86
2022-08-08T04:35:17.250Z,17.92
2022-08-08T04:37:58.696Z,17.97
2022-08-08T04:40:51.797Z,18.04
2022-08-08T04:43:31.830Z,18.13
2022-08-08T04:46:30.913Z,18.17
2022-08-08T04:49:11.433Z,18.27
2022-08-08T04:51:57.658Z,18.37
2022-08-08T04:54:42.427Z,18.45
2022-08-08T04:57:18.658Z,18.56
2022-08-08T05:00:02.694Z,18.66
2022-08-08T05:02:45.730Z,18.68
2022-08-08T05:05:44.136Z,18.66
2022-08-08T05:08:28.739Z,18.86
2022-08-08T05:11:23.881Z,18.92
2022-08-08T05:14:02.417Z,19.01
2022-08-08T05:17:01.426Z,19.16
2022-08-08T05:20:12.687Z,19.33
2022-08-08T05:22:50.334Z,19.53
2022-08-08T05:25:53.808Z,19.66
2022-08-08T05:28:55.779Z,19.64
2022-08-08T05:32:03.111Z,19.63
2022-08-08T05:34:54.646Z,19.79
2022-08-08T05:37:53.385Z,19.95
2022-08-08T05:40:58.210Z,20.03
2022-08-08T05:43:39.950Z,20.24
2022-08-08T05:46:36.007Z,20.50
2022-08-08T05:49:22.077Z,20.49
2022-08-08T05:52:06.001Z,20.51
2022-08-08T05:54:50.317Z,20.63
2022-08-08T05:58:05.417Z,20.72
2022-08-08T06:00:34.478Z,20.83
2022-08-08T06:03:25.416Z,20.95
2022-08-08T06:06:10.647Z,21.32
2022-08-08T06:08:54.918Z,21.34
2022-08-08T06:11:49.111Z,21.36
2022-08-08T06:14:32.887Z,21.29
2022-08-08T06:20:13.733Z,21.56
2022-08-08T06:22:52.620Z,21.42
2022-08-08T06:25:58.914Z,21.54
2022-08-08T06:28:55.667Z,21.52
2022-08-08T06:32:09.281Z,21.57
2022-08-08T06:35:11.938Z,21.51
2022-08-08T06:38:01.658Z,21.52
2022-08-08T06:40:48.293Z,21.66
2022-08-08T06:43:21.130Z,21.61
2022-08-08T06:46:16.982Z,21.77
2022-08-08T06:48:59.742Z,22.00
2022-08-08T06:51:46.921Z,22.31
2022-08-08T06:54:32.474Z,22.51
2022-08-08T06:57:06.330Z,23.04
2022-08-08T07:00:10.538Z,23.62
2022-08-08T07:03:19.359Z,24.21
2022-08-08T07:06:02.123Z,24.46
2022-08-08T07:08:55.324Z,24.15
2022-08-08T07:11:46.271Z,24.12
2022-08-08T07:14:42.365Z,23.96
2022-08-08T07:17:40.144Z,24.08
2022-08-08T07:20:50.547Z,23.97
2022-08-08T07:24:01.263Z,23.80
2022-08-08T07:26:53.863Z,23.60
2022-08-08T07:30:02.489Z,23.88
2022-08-08T07:32:53.721Z,23.88
2022-08-08T07:35:36.667Z,23.79
2022-08-08T07:38:25.510Z,23.47
2022-08-08T07:41:23.380Z,23.48
2022-08-08T07:44:33.636Z,23.92
2022-08-08T07:47:19.036Z,24.17
2022-08-08T07:50:25.363Z,24.51
2022-08-08T07:53:07.595Z,24.80
2022-08-08T07:55:54.567Z,24.91
2022-08-08T07:58:33.701Z,25.01
2022-08-08T08:01:16.038Z,25.01
2022-08-08T08:04:35.947Z,25.11
2022-08-08T08:07:32.307Z,25.39
2022-08-08T08:10:30.575Z,25.26
2022-08-08T08:14:07.670Z,25.28
2022-08-08T08:16:51.727Z,25.11
2022-08-08T08:19:45.906Z,25.01
2022-08-08T08:22:27.927Z,24.83
2022-08-08T08:25:42.520Z,24.97
2022-08-08T08:28:29.170Z,25.08
2022-08-08T08:31:17.553Z,24.78
2022-08-08T08:33:53.235Z,24.84
2022-08-08T08:36:26.568Z,24.61
2022-08-08T08:39:17.647Z,24.76
2022-08-08T08:42:02.877Z,24.77
2022-08-08T08:44:41.839Z,24.73
2022-08-08T08:47:27.355Z,25.06
2022-08-08T08:50:33.879Z,25.09
2022-08-08T08:53:27.853Z,25.02
2022-08-08T08:56:26.281Z,25.07
2022-08-08T08:59:30.602Z,25.18
2022-08-08T09:02:24.688Z,25.16
2022-08-08T09:05:49.098Z,25.17
2022-08-08T09:08:29.853Z,25.20
2022-08-08T09:11:18.680Z,25.03
2022-08-08T09:13:55.018Z,25.23
2022-08-08T09:16:45.285Z,25.40
2022-08-08T09:21:59.393Z,25.44
2022-08-08T09:22:42.278Z,25.51
2022-08-08T09:25:22.840Z,25.60
2022-08-08T09:28:31.610Z,25.48
2022-08-08T09:31:56.071Z,25.48
2022-08-08T09:34:50.414Z,25.52
2022-08-08T09:38:01.218Z,25.71
2022-08-08T09:40:55.593Z,25.69
2022-08-08T09:44:06.413Z,25.75
2022-08-08T09:47:05.598Z,26.01
2022-08-08T09:50:03.480Z,26.03
2022-08-08T09:53:02.238Z,26.07
2022-08-08T09:56:05.705Z,26.13
2022-08-08T09:58:48.254Z,26.06
2022-08-08T10:01:59.689Z,26.20
2022-08-08T10:04:47.283Z,26.38
2022-08-08T10:07:26.078Z,26.42
2022-08-08T10:10:09.777Z,26.41
2022-08-08T10:12:53.448Z,26.40
2022-08-08T10:15:40.724Z,26.34
2022-08-08T10:18:43.825Z,26.30
2022-08-08T10:21:33.120Z,26.16
2022-08-08T10:24:35.261Z,26.07
2022-08-08T10:27:23.439Z,26.00
2022-08-08T10:30:16.722Z,25.94
2022-08-08T10:33:08.890Z,25.94
2022-08-08T10:36:09.234Z,25.94
2022-08-08T10:39:08.098Z,26.09
2022-08-08T10:42:13.151Z,26.11
2022-08-08T10:44:51.729Z,26.12
2022-08-08T10:47:43.843Z,26.07
2022-08-08T10:50:25.807Z,25.99
2022-08-08T10:53:20.704Z,26.12
2022-08-08T10:56:27.691Z,26.20
2022-08-08T10:59:14.068Z,26.29
2022-08-08T11:02:03.086Z,26.22
2022-08-08T11:04:39.113Z,26.25
2022-08-08T11:08:31.011Z,26.30
2022-08-08T11:10:34.897Z,26.02
2022-08-08T11:13:31.978Z,26.00
2022-08-08T11:16:33.183Z,26.16
2022-08-08T11:19:17.373Z,26.12
2022-08-08T11:22:00.774Z,25.97
2022-08-08T11:24:44.831Z,26.01
2022-08-08T11:27:29.310Z,25.92
2022-08-08T11:30:20.152Z,26.03
2022-08-08T11:33:12.222Z,26.13
2022-08-08T11:35:55.518Z,26.09
2022-08-08T11:38:54.194Z,26.28
2022-08-08T11:41:39.316Z,26.35
2022-08-08T11:44:29.004Z,26.49
2022-08-08T11:47:12.961Z,26.65
2022-08-08T11:50:10.054Z,26.57
2022-08-08T11:52:52.400Z,26.46
2022-08-08T11:55:36.715Z,26.20
2022-08-08T11:58:21.891Z,26.03
2022-08-08T12:00:58.687Z,25.83
2022-08-08T12:03:36.942Z,25.51
2022-08-08T12:06:26.037Z,25.22
2022-08-08T12:09:56.995Z,25.20
2022-08-08T12:12:36.677Z,24.90
2022-08-08T12:15:15.458Z,24.67
2022-08-08T12:18:15.987Z,24.64
2022-08-08T12:21:00.127Z,24.69
2022-08-08T12:23:42.825Z,24.53
2022-08-08T12:26:38.755Z,24.52
2022-08-08T12:29:44.952Z,24.13
2022-08-08T12:32:31.133Z,24.07
2022-08-08T12:35:22.836Z,24.20
2022-08-08T12:38:18.117Z,23.78
2022-08-08T12:41:00.931Z,23.59
2022-08-08T12:43:46.464Z,23.02
2022-08-08T12:46:42.811Z,23.11
2022-08-08T12:49:45.134Z,22.99
2022-08-08T12:52:39.757Z,22.71
2022-08-08T12:55:32.102Z,22.74
2022-08-08T12:58:25.285Z,22.50
2022-08-08T13:01:24.731Z,22.25
2022-08-08T13:04:24.405Z,22.48
2022-08-08T13:08:02.229Z,22.62
2022-08-08T13:10:27.823Z,22.73
2022-08-08T13:13:14.090Z,22.84
2022-08-08T13:15:54.763Z,23.01
2022-08-08T13:18:32.592Z,23.00
2022-08-08T13:21:36.395Z,23.02
2022-08-08T13:24:42.407Z,22.71
2022-08-08T13:27:35.578Z,22.86
2022-08-08T13:30:16.048Z,22.86
2022-08-08T13:32:58.870Z,22.93
2022-08-08T13:35:38.751Z,22.79
2022-08-08T13:38:28.540Z,22.78
2022-08-08T13:41:16.437Z,23.02
2022-08-08T13:43:55.643Z,22.98
2022-08-08T13:46:30.805Z,23.31
2022-08-08T13:50:33.256Z,23.18
2022-08-08T13:52:10.600Z,23.37
2022-08-08T13:54:52.720Z,23.30
2022-08-08T13:58:07.049Z,23.08
2022-08-08T14:00:21.441Z,22.82
2022-08-08T14:03:38.437Z,22.89
2022-08-08T14:06:33.981Z,22.96
2022-08-08T14:09:24.974Z,22.98
2022-08-08T14:11:59.968Z,23.08
2022-08-08T14:14:47.387Z,22.91
2022-08-08T14:17:58.422Z,23.24
2022-08-08T14:20:56.362Z,23.21
2022-08-08T14:24:04.715Z,22.99
2022-08-08T14:26:36.361Z,23.06
2022-08-08T14:29:28.577Z,23.18
2022-08-08T14:32:09.965Z,23.23
2022-08-08T14:35:05.783Z,23.02
2022-08-08T14:37:59.943Z,23.18
2022-08-08T14:40:47.528Z,23.17
2022-08-08T14:44:02.591Z,23.11
2022-08-08T14:46:42.638Z,23.28
2022-08-08T14:49:33.582Z,23.21
2022-08-08T14:52:28.005Z,23.45
2022-08-08T14:55:02.934Z,23.79
2022-08-08T14:58:02.735Z,23.46
2022-08-08T15:00:48.233Z,23.61
2022-08-08T15:03:16.985Z,23.78
2022-08-08T15:06:16.570Z,23.61
2022-08-08T15:09:00.454Z,23.91
2022-08-08T15:11:53.552Z,24.05
2022-08-08T15:14:40.037Z,24.32
2022-08-08T15:17:16.192Z,24.43
2022-08-08T15:19:56.669Z,24.64
2022-08-08T15:22:34.751Z,24.93
2022-08-08T15:25:17.393Z,25.02
2022-08-08T15:28:34.146Z,24.98
2022-08-08T15:31:10.288Z,25.05
2022-08-08T15:34:06.997Z,24.52
2022-08-08T15:36:44.178Z,24.38
2022-08-08T15:39:21.720Z,24.53
2022-08-08T15:42:10.196Z,24.69
2022-08-08T15:44:43.547Z,24.49
2022-08-08T15:47:22.629Z,24.42
2022-08-08T15:49:57.434Z,24.63
2022-08-08T15:52:38.282Z,24.43
2022-08-08T15:55:14.583Z,24.30
2022-08-08T15:57:55.771Z,24.00
2022-08-08T16:00:36.821Z,23.79
2022-08-08T16:03:23.936Z,23.79
2022-08-08T16:06:08.194Z,23.77
2022-08-08T16:12:59.985Z,23.52
2022-08-08T16:13:12.039Z,23.44
2022-08-08T16:15:14.350Z,23.22
2022-08-08T16:18:11.262Z,23.27
2022-08-08T16:20:50.997Z,22.98
2022-08-08T16:23:21.554Z,22.84
2022-08-08T16:26:03.472Z,23.09
2022-08-08T16:28:43.134Z,22.86
2022-08-08T16:31:21.509Z,23.07
2022-08-08T16:34:08.878Z,23.00
2022-08-08T16:36:50.490Z,22.96
2022-08-08T16:39:59.772Z,22.54
2022-08-08T16:42:21.575Z,22.37
2022-08-08T16:46:37.653Z,22.60
2022-08-08T16:48:18.038Z,22.52
2022-08-08T16:51:01.820Z,22.66
2022-08-08T16:55:04.274Z,22.94
2022-08-08T16:57:01.646Z,23.46
2022-08-08T16:59:50.691Z,23.32
2022-08-08T17:02:38.538Z,22.92
2022-08-08T17:05:14.107Z,22.62
2022-08-08T17:07:51.094Z,22.24
2022-08-08T17:10:21.934Z,22.19
2022-08-08T17:13:02.718Z,22.10
2022-08-08T17:15:52.735Z,21.99
2022-08-08T17:18:33.699Z,22.01
2022-08-08T17:21:11.905Z,21.97
2022-08-08T17:24:00.066Z,21.80
2022-08-08T17:26:53.207Z,21.44
2022-08-08T17:29:43.567Z,21.22
2022-08-08T17:34:34.934Z,21.34
2022-08-08T17:35:56.134Z,21.24
2022-08-08T17:38:34.421Z,21.00
2022-08-08T17:41:09.865Z,20.82
2022-08-08T17:44:01.165Z,20.83
2022-08-08T17:46:59.704Z,20.51
2022-08-08T17:49:43.865Z,20.64
2022-08-08T17:52:23.044Z,20.54
2022-08-08T17:55:05.394Z,20.59
2022-08-08T17:57:39.859Z,20.56
2022-08-08T18:00:21.408Z,20.24
2022-08-08T18:03:07.642Z,20.22
2022-08-08T18:05:47.938Z,20.15
2022-08-08T18:08:43.582Z,20.20
2022-08-08T18:11:29.540Z,20.12
2022-08-08T18:14:21.763Z,19.99
2022-08-08T18:17:03.106Z,20.01
2022-08-08T18:19:46.762Z,19.99
2022-08-08T18:23:04.955Z,19.91
2022-08-08T18:25:55.533Z,19.81
2022-08-08T18:28:54.006Z,19.71
2022-08-08T18:31:28.729Z,19.63
2022-08-08T18:34:12.181Z,19.69
2022-08-08T18:37:09.391Z,19.67
2022-08-08T18:39:53.444Z,19.70
2022-08-08T18:42:53.240Z,19.58
2022-08-08T18:46:00.451Z,19.52
2022-08-08T18:48:41.230Z,19.39
2022-08-08T18:51:40.561Z,19.33
2022-08-08T18:54:22.849Z,19.40
2022-08-08T18:57:42.051Z,19.25
2022-08-08T19:00:22.004Z,19.29
2022-08-08T19:03:06.085Z,19.33
2022-08-08T19:05:51.699Z,19.25
2022-08-08T19:08:33.072Z,19.23
2022-08-08T19:11:17.324Z,19.31
2022-08-08T19:13:59.018Z,19.15
2022-08-08T19:16:41.443Z,19.04
2022-08-08T19:19:27.532Z,19.05
2022-08-08T19:22:21.887Z,18.92
2022-08-08T19:25:03.534Z,18.87
2022-08-08T19:28:04.160Z,18.79
2022-08-08T19:31:04.339Z,18.88
2022-08-08T19:34:04.337Z,18.87
2022-08-08T19:36:42.268Z,18.81
2022-08-08T19:39:23.315Z,18.78
2022-08-08T19:41:57.480Z,18.72
2022-08-08T19:44:42.513Z,18.77
2022-08-08T19:47:27.356Z,18.74
2022-08-08T19:50:04.960Z,18.73
2022-08-08T19:52:55.064Z,18.63
2022-08-08T19:55:47.189Z,18.76
2022-08-08T19:58:29.355Z,18.73
2022-08-08T20:01:17.370Z,18.84
2022-08-08T20:04:12.914Z,18.84
2022-08-08T20:06:56.970Z,18.81
2022-08-08T20:09:45.251Z,18.77
2022-08-08T20:12:35.937Z,18.91
2022-08-08T20:15:16.600Z,18.84
2022-08-08T20:17:52.835Z,18.85
2022-08-08T20:20:41.109Z,18.84
2022-08-08T20:23:16.737Z,18.70
2022-08-08T20:25:57.541Z,18.76
2022-08-08T20:28:32.699Z,18.77
2022-08-08T20:31:19.137Z,18.78
2022-08-08T20:34:29.309Z,18.74
2022-08-08T20:37:06.150Z,18.75
2022-08-08T20:39:50.885Z,18.71
2022-08-08T20:42:38.670Z,18.75
2022-08-08T20:45:54.990Z,18.66
2022-08-08T20:48:29.600Z,18.59
2022-08-08T20:50:59.601Z,18.60
2022-08-08T20:54:00.960Z,18.58
2022-08-08T20:57:04.402Z,18.61
2022-08-08T21:00:01.123Z,18.56
2022-08-08T21:02:34.299Z,18.58
2022-08-08T21:05:23.268Z,18.58
2022-08-08T21:08:36.834Z,18.48
2022-08-08T21:11:06.812Z,18.43
2022-08-08T21:13:48.024Z,18.49
2022-08-08T21:16:33.739Z,18.57
2022-08-08T21:19:10.772Z,18.42
2022-08-08T21:21:42.667Z,18.43
2022-08-08T21:24:30.363Z,18.42
2022-08-08T21:27:05.284Z,18.41
2022-08-08T21:30:02.593Z,18.30
2022-08-08T21:32:37.382Z,18.40
2022-08-08T21:36:17.732Z,18.25
2022-08-08T21:38:16.055Z,18.29
2022-08-08T21:40:58.715Z,18.25
2022-08-08T21:43:35.640Z,18.37
2022-08-08T21:48:08.234Z,18.30
2022-08-08T21:49:31.166Z,18.13
2022-08-08T21:54:23.309Z,18.11
2022-08-08T21:56:24.565Z,18.09
2022-08-08T21:58:37.825Z,17.97
2022-08-08T22:01:27.836Z,17.94
2022-08-08T22:04:32.709Z,17.89
2022-08-08T22:07:08.824Z,17.91
2022-08-08T22:09:46.744Z,17.91
2022-08-08T22:12:28.748Z,17.91
2022-08-08T22:15:07.660Z,17.87
2022-08-08T22:17:49.454Z,17.84
2022-08-08T22:20:28.322Z,17.70
2022-08-08T22:23:12.054Z,17.80
2022-08-08T22:26:27.110Z,17.79
2022-08-08T22:29:57.008Z,17.68
2022-08-08T22:32:03.527Z,17.55
2022-08-08T22:34:39.895Z,17.54
2022-08-08T22:37:48.890Z,17.52
2022-08-08T22:40:26.760Z,17.51
2022-08-08T22:43:12.762Z,17.45
2022-08-08T22:46:01.000Z,17.49
2022-08-08T22:48:40.037Z,17.39
2022-08-08T22:51:21.952Z,17.36
2022-08-08T22:54:34.034Z,17.34
2022-08-08T22:57:11.641Z,17.30
2022-08-08T23:00:01.093Z,17.28
2022-08-08T23:02:44.679Z,17.32
2022-08-08T23:05:28.039Z,17.38
2022-08-08T23:08:02.707Z,17.43
2022-08-08T23:10:36.720Z,17.42
2022-08-08T23:13:12.772Z,17.38
2022-08-08T23:16:38.242Z,17.39
2022-08-08T23:19:09.676Z,17.45
2022-08-08T23:21:51.909Z,17.48
2022-08-08T23:24:41.463Z,17.54
2022-08-08T23:27:39.258Z,17.46
2022-08-08T23:30:32.763Z,17.45
2022-08-08T23:33:35.952Z,17.41
2022-08-08T23:36:24.269Z,17.38
2022-08-08T23:39:07.379Z,17.39
2022-08-08T23:41:49.576Z,17.39
2022-08-08T23:44:36.580Z,17.36
2022-08-08T23:49:07.772Z,17.38
2022-08-08T23:50:31.108Z,17.26
2022-08-08T23:53:10.069Z,17.32
2022-08-08T23:55:58.568Z,17.27
2022-08-08T23:58:39.122Z,17.29
